Time;durP1;ratioP1;P1;durP2;ratioP2;P2;SDS_P1;SDS_P2;PMS_P1;PMS_P2;Temp;Humidity;BMP_temperature;BMP_pressure;BME280_temperature;BME280_humidity;BME280_pressure;Samples;Min_cycle;Max_cycle;Signal;HPM_P1;HPM_P2
2023/10/30 00:00:37;;;;;;;3.33;0.97;;;14.30;99.20;;;;;;10502995;28;20484;-64
2023/10/30 00:05:38;;;;;;;3.08;0.90;;;14.20;99.20;;;;;;10497699;28;20402;-64
2023/10/30 00:10:39;;;;;;;1.93;0.77;;;14.30;99.20;;;;;;10502937;28;20409;-64
2023/10/30 00:15:39;;;;;;;1.50;0.80;;;14.20;99.20;;;;;;10504023;28;21325;-65
2023/10/30 00:20:40;;;;;;;2.47;1.08;;;14.20;99.20;;;;;;10501930;28;20397;-64
2023/10/30 00:25:41;;;;;;;3.80;1.10;;;14.20;99.10;;;;;;10509780;28;20483;-64
2023/10/30 00:30:41;;;;;;;1.60;0.73;;;14.20;99.10;;;;;;10498668;28;20561;-65
2023/10/30 00:35:43;;;;;;;2.50;0.90;;;14.20;99.10;;;;;;10514064;28;20945;-64
2023/10/30 00:40:44;;;;;;;2.57;0.90;;;14.20;99.10;;;;;;10502949;28;20392;-64
2023/10/30 00:45:45;;;;;;;2.42;1.10;;;14.20;99.10;;;;;;10498143;28;20457;-65
2023/10/30 00:50:48;;;;;;;2.17;1.05;;;14.20;99.00;;;;;;10512255;28;20391;-64
2023/10/30 00:55:52;;;;;;;2.08;0.93;;;14.10;99.00;;;;;;10510716;28;20493;-63
2023/10/30 01:00:52;;;;;;;1.80;0.85;;;14.10;99.00;;;;;;10505295;28;20398;-64
2023/10/30 01:05:57;;;;;;;1.97;1.03;;;14.10;99.00;;;;;;10501525;28;20399;-64
2023/10/30 01:10:58;;;;;;;2.42;0.90;;;14.10;99.00;;;;;;10499744;28;20398;-64
2023/10/30 01:15:58;;;;;;;1.13;0.80;;;14.10;99.00;;;;;;10491391;28;20876;-64
2023/10/30 01:20:59;;;;;;;2.28;1.05;;;14.10;99.00;;;;;;10504500;28;20394;-65
2023/10/30 01:25:59;;;;;;;1.50;1.00;;;14.00;98.90;;;;;;10512045;28;20397;-65
2023/10/30 01:31:00;;;;;;;1.80;0.97;;;14.00;98.90;;;;;;10501970;28;20427;-64
2023/10/30 01:36:01;;;;;;;2.42;1.10;;;14.00;98.90;;;;;;10504320;28;20449;-64
2023/10/30 01:41:01;;;;;;;2.30;1.03;;;14.40;99.30;;;;;;10506640;28;20475;-64
2023/10/30 01:46:02;;;;;;;2.03;1.00;;;14.00;98.90;;;;;;10503259;28;21136;-64
2023/10/30 01:51:05;;;;;;;3.17;0.97;;;14.00;98.90;;;;;;10502106;28;20403;-65
2023/10/30 01:56:06;;;;;;;2.00;0.90;;;14.00;98.90;;;;;;10500085;28;20396;-64
2023/10/30 02:01:07;;;;;;;2.75;1.10;;;14.30;99.00;;;;;;10502756;28;20395;-64
2023/10/30 02:06:07;;;;;;;3.90;1.42;;;13.90;98.90;;;;;;10498219;28;20395;-64
2023/10/30 02:11:08;;;;;;;4.03;1.17;;;14.00;98.90;;;;;;10499476;28;20651;-64
2023/10/30 02:16:09;;;;;;;3.47;1.20;;;13.90;98.90;;;;;;10493615;28;20419;-64
2023/10/30 02:21:11;;;;;;;3.65;1.30;;;13.90;98.90;;;;;;10498785;28;21083;-64
2023/10/30 02:26:12;;;;;;;2.30;1.10;;;13.90;98.90;;;;;;10495954;28;20490;-64
2023/10/30 02:31:13;;;;;;;3.10;1.33;;;13.90;98.90;;;;;;10482478;28;20959;-64
2023/10/30 02:36:13;;;;;;;3.93;1.30;;;13.90;98.90;;;;;;10486337;28;20880;-65
2023/10/30 02:41:14;;;;;;;3.40;1.27;;;14.20;99.00;;;;;;10502489;28;20989;-64
2023/10/30 02:46:14;;;;;;;4.20;1.20;;;13.90;98.90;;;;;;10499670;28;20401;-64
2023/10/30 02:51:15;;;;;;;4.18;1.17;;;13.90;98.90;;;;;;10497557;28;20389;-65
2023/10/30 02:56:15;;;;;;;2.27;1.23;;;13.80;98.80;;;;;;10500357;28;20508;-65
2023/10/30 03:01:16;;;;;;;3.40;1.30;;;13.90;98.90;;;;;;10496972;28;20924;-64
2023/10/30 03:06:17;;;;;;;3.83;1.30;;;14.80;99.10;;;;;;10493427;28;20405;-63
2023/10/30 03:11:17;;;;;;;4.63;1.40;;;13.90;98.90;;;;;;10502011;28;20420;-64
2023/10/30 03:16:18;;;;;;;4.67;1.40;;;13.80;98.80;;;;;;10501524;28;20444;-64
2023/10/30 03:21:19;;;;;;;2.63;1.30;;;13.80;98.80;;;;;;10493080;28;20382;-64
2023/10/30 03:26:19;;;;;;;3.40;1.30;;;13.80;98.80;;;;;;10493262;28;20401;-64
2023/10/30 03:31:20;;;;;;;5.00;1.20;;;13.80;98.80;;;;;;10492335;28;20405;-64
2023/10/30 03:36:25;;;;;;;3.63;1.20;;;13.90;98.80;;;;;;10509115;28;20447;-64
2023/10/30 03:41:25;;;;;;;3.37;1.27;;;13.80;98.80;;;;;;10507189;28;20394;-64
2023/10/30 03:46:26;;;;;;;3.80;1.30;;;13.80;98.80;;;;;;10503462;28;20390;-64
2023/10/30 03:51:27;;;;;;;3.10;1.33;;;13.80;98.80;;;;;;10514181;28;20802;-63
2023/10/30 03:56:27;;;;;;;3.65;1.17;;;13.80;98.80;;;;;;10509213;28;20842;-64
2023/10/30 04:01:28;;;;;;;3.40;1.27;;;13.80;98.80;;;;;;10507903;28;20938;-63
2023/10/30 04:06:29;;;;;;;5.07;1.20;;;13.70;98.70;;;;;;10509306;28;20455;-64
2023/10/30 04:11:30;;;;;;;4.45;1.30;;;13.80;98.80;;;;;;10507029;28;20406;-63
2023/10/30 04:16:31;;;;;;;5.70;1.50;;;13.80;98.80;;;;;;10503653;28;20938;-63
2023/10/30 04:21:32;;;;;;;3.72;1.30;;;13.80;98.80;;;;;;10502292;28;20402;-65
2023/10/30 04:26:33;;;;;;;5.20;1.45;;;13.80;98.80;;;;;;10500246;28;20430;-63
2023/10/30 04:31:33;;;;;;;3.23;1.30;;;13.70;98.70;;;;;;10502980;28;20504;-64
2023/10/30 04:36:34;;;;;;;3.17;1.37;;;13.80;98.80;;;;;;10510419;28;20413;-64
2023/10/30 04:41:34;;;;;;;3.67;1.40;;;13.80;98.80;;;;;;10504590;28;20405;-64
2023/10/30 04:46:35;;;;;;;5.37;1.30;;;13.70;98.70;;;;;;10511380;28;20410;-65
2023/10/30 04:51:36;;;;;;;4.30;1.20;;;13.70;98.70;;;;;;10501143;28;20816;-64
2023/10/30 04:56:36;;;;;;;4.78;1.23;;;13.70;98.70;;;;;;10484561;28;20452;-64
2023/10/30 05:01:37;;;;;;;3.53;1.00;;;13.70;98.70;;;;;;10504520;28;20406;-64
2023/10/30 05:06:37;;;;;;;4.70;1.20;;;13.70;98.70;;;;;;10500180;28;20406;-63
2023/10/30 05:11:41;;;;;;;2.08;1.10;;;13.70;98.70;;;;;;10510162;28;20390;-64
2023/10/30 05:16:41;;;;;;;4.90;1.50;;;13.70;98.70;;;;;;10497312;28;20398;-65
2023/10/30 05:21:42;;;;;;;3.10;1.03;;;13.70;98.70;;;;;;10502746;28;20402;-65
2023/10/30 05:26:42;;;;;;;3.50;1.20;;;14.30;98.90;;;;;;10497544;28;20417;-64
2023/10/30 05:31:43;;;;;;;4.75;1.25;;;13.70;98.70;;;;;;10497443;28;20492;-64
2023/10/30 05:36:43;;;;;;;4.33;1.23;;;13.70;98.70;;;;;;10510635;28;20452;-64
2023/10/30 05:41:44;;;;;;;5.03;1.37;;;13.70;98.70;;;;;;10505298;28;20789;-64
2023/10/30 05:46:44;;;;;;;3.42;1.23;;;13.70;98.70;;;;;;10499207;28;20940;-65
2023/10/30 05:51:45;;;;;;;5.03;1.33;;;13.60;98.70;;;;;;10512782;28;20531;-64
2023/10/30 05:56:46;;;;;;;4.07;1.40;;;13.60;98.70;;;;;;10496398;28;20406;-63
2023/10/30 06:01:47;;;;;;;3.53;1.10;;;13.60;98.70;;;;;;10488465;28;20483;-64
2023/10/30 06:06:48;;;;;;;4.43;1.20;;;13.60;98.70;;;;;;10479886;28;20398;-64
2023/10/30 06:11:49;;;;;;;3.50;1.07;;;13.60;98.70;;;;;;10487590;28;20390;-64
2023/10/30 06:16:49;;;;;;;4.47;1.25;;;13.60;98.70;;;;;;10483789;28;20787;-64
2023/10/30 06:21:50;;;;;;;5.40;1.40;;;13.60;98.70;;;;;;10488329;28;20476;-64
2023/10/30 06:26:51;;;;;;;4.97;1.20;;;13.60;98.70;;;;;;10493074;28;20391;-63
2023/10/30 06:31:51;;;;;;;4.33;1.40;;;13.60;98.70;;;;;;10492687;28;20405;-64
2023/10/30 06:36:52;;;;;;;4.00;1.20;;;13.60;98.70;;;;;;10484119;28;20518;-64
2023/10/30 06:41:56;;;;;;;4.55;1.35;;;13.60;98.80;;;;;;10491128;28;20390;-64
2023/10/30 06:46:58;;;;;;;5.18;1.40;;;13.60;98.80;;;;;;10487803;28;20411;-65
2023/10/30 06:51:58;;;;;;;4.38;1.20;;;13.60;98.80;;;;;;10497745;28;20457;-64
2023/10/30 06:56:59;;;;;;;4.83;1.00;;;13.60;98.80;;;;;;10498426;28;20899;-64
2023/10/30 07:01:59;;;;;;;4.68;1.27;;;13.60;98.80;;;;;;10477245;28;20413;-65
2023/10/30 07:07:00;;;;;;;2.83;1.10;;;13.60;98.80;;;;;;10491535;28;20405;-64
2023/10/30 07:12:00;;;;;;;3.27;1.20;;;13.60;98.80;;;;;;10488500;28;20403;-65
2023/10/30 07:17:01;;;;;;;4.97;1.23;;;13.60;98.80;;;;;;10492078;28;20499;-64
2023/10/30 07:22:04;;;;;;;3.97;1.30;;;13.60;98.80;;;;;;10495037;28;20415;-64
2023/10/30 07:27:05;;;;;;;3.42;1.05;;;13.60;98.80;;;;;;10484219;28;20839;-64
2023/10/30 07:32:06;;;;;;;4.53;1.20;;;13.60;98.80;;;;;;10491882;28;20463;-64
2023/10/30 07:37:07;;;;;;;3.60;1.30;;;13.60;98.80;;;;;;10483553;28;20395;-65
2023/10/30 07:42:07;;;;;;;4.75;1.10;;;13.60;98.80;;;;;;10482793;28;20406;-64
2023/10/30 07:47:08;;;;;;;3.60;1.20;;;13.70;98.80;;;;;;10491139;28;20398;-64
2023/10/30 07:52:08;;;;;;;4.00;1.35;;;13.70;98.80;;;;;;10490169;28;20407;-64
2023/10/30 07:57:10;;;;;;;4.60;1.03;;;13.70;98.80;;;;;;10486935;28;20411;-65
2023/10/30 08:02:10;;;;;;;3.97;0.98;;;13.80;98.80;;;;;;10490966;28;20407;-65
2023/10/30 08:07:11;;;;;;;3.10;1.10;;;13.70;98.90;;;;;;10489918;28;20468;-64
2023/10/30 08:12:12;;;;;;;5.37;1.30;;;13.70;98.90;;;;;;10506971;28;20412;-65
2023/10/30 08:17:12;;;;;;;3.28;1.13;;;13.80;98.90;;;;;;10498826;28;20398;-65
2023/10/30 08:22:13;;;;;;;4.37;1.20;;;13.90;98.90;;;;;;10503368;28;20452;-65
2023/10/30 08:27:13;;;;;;;3.13;1.10;;;14.00;98.80;;;;;;10493614;28;20417;-65
2023/10/30 08:32:14;;;;;;;6.57;1.33;;;14.10;98.80;;;;;;10492646;28;20435;-65
2023/10/30 08:37:15;;;;;;;3.63;1.20;;;14.20;98.80;;;;;;10498634;28;20409;-65
2023/10/30 08:42:15;;;;;;;4.97;1.30;;;14.20;98.80;;;;;;10497276;28;20410;-64
2023/10/30 08:47:16;;;;;;;4.33;1.20;;;14.30;98.70;;;;;;10502420;28;20436;-65
2023/10/30 08:52:17;;;;;;;4.77;1.20;;;14.40;98.70;;;;;;10498930;28;20402;-65
2023/10/30 08:57:19;;;;;;;3.28;1.10;;;15.00;98.80;;;;;;10495071;28;20895;-65
2023/10/30 09:02:19;;;;;;;4.43;1.25;;;14.50;98.60;;;;;;10498789;28;20403;-65
2023/10/30 09:07:20;;;;;;;3.93;1.50;;;14.60;98.60;;;;;;10497175;28;20408;-66
2023/10/30 09:12:20;;;;;;;4.00;1.37;;;14.60;98.60;;;;;;10495237;28;20420;-66
2023/10/30 09:17:21;;;;;;;4.32;1.10;;;14.70;98.50;;;;;;10501417;28;20397;-69
2023/10/30 09:22:22;;;;;;;3.93;1.20;;;14.70;98.50;;;;;;10500188;28;20739;-65
2023/10/30 09:27:23;;;;;;;3.43;1.20;;;14.70;98.50;;;;;;10498567;28;20406;-64
2023/10/30 09:32:25;;;;;;;4.90;1.52;;;14.70;98.50;;;;;;10501176;28;20439;-64
2023/10/30 09:37:26;;;;;;;5.00;1.40;;;14.70;98.50;;;;;;10496132;28;20394;-66
2023/10/30 09:42:26;;;;;;;5.85;1.10;;;14.70;98.60;;;;;;10495501;28;20402;-66
2023/10/30 09:47:27;;;;;;;4.03;1.20;;;14.60;98.60;;;;;;10485223;28;20910;-66
2023/10/30 09:52:29;;;;;;;7.60;1.93;;;14.60;98.70;;;;;;10492065;28;20773;-66
2023/10/30 09:57:30;;;;;;;6.20;1.80;;;14.60;98.70;;;;;;10489177;28;20405;-70
2023/10/30 10:02:34;;;;;;;5.72;1.63;;;14.50;99.00;;;;;;10487522;28;20488;-66
2023/10/30 10:07:35;;;;;;;5.55;1.58;;;14.50;99.20;;;;;;10492322;28;20412;-66
2023/10/30 10:12:36;;;;;;;5.05;1.70;;;14.50;99.10;;;;;;10487355;28;20409;-68
2023/10/30 10:17:48;;;;;;;5.53;1.67;;;14.50;99.10;;;;;;10491771;28;20469;-66
2023/10/30 10:22:49;;;;;;;6.33;1.73;;;14.60;99.10;;;;;;10501373;28;20937;-65
2023/10/30 10:27:50;;;;;;;7.80;1.67;;;14.50;99.10;;;;;;10497497;28;20400;-66
2023/10/30 10:32:50;;;;;;;5.90;1.90;;;14.60;99.10;;;;;;10495225;28;20864;-65
2023/10/30 10:38:08;;;;;;;4.85;1.55;;;14.40;99.00;;;;;;10498054;28;20445;-66
2023/10/30 10:43:09;;;;;;;6.38;1.58;;;14.60;99.10;;;;;;10488793;28;20394;-66
2023/10/30 10:48:10;;;;;;;7.55;1.63;;;14.60;99.00;;;;;;10500641;28;20401;-65
2023/10/30 10:53:11;;;;;;;6.17;1.60;;;14.60;99.00;;;;;;10481724;28;20423;-66
2023/10/30 10:58:20;;;;;;;6.05;1.67;;;14.60;99.00;;;;;;10493171;28;20444;-66
2023/10/30 11:03:21;;;;;;;5.72;1.60;;;14.60;99.10;;;;;;10498396;28;20881;-67
2023/10/30 11:08:48;;;;;;;7.20;1.63;;;14.60;99.10;;;;;;10503742;28;20734;-67
2023/10/30 11:14:19;;;;;;;5.43;1.80;;;14.60;99.10;;;;;;10495293;28;20487;-67
2023/10/30 11:19:20;;;;;;;6.53;1.50;;;14.60;99.10;;;;;;10489351;28;20489;-67
2023/10/30 11:24:38;;;;;;;4.75;1.58;;;14.90;99.20;;;;;;10495850;28;21114;-69
2023/10/30 11:30:04;;;;;;;4.78;1.60;;;14.70;99.10;;;;;;10488714;28;20890;-66
2023/10/30 11:35:04;;;;;;;3.28;1.40;;;14.60;99.10;;;;;;10494564;28;20416;-67
2023/10/30 11:40:07;;;;;;;6.60;2.05;;;14.70;99.10;;;;;;10500240;28;20406;-68
2023/10/30 11:45:24;;;;;;;6.23;1.90;;;14.70;99.10;;;;;;10501159;28;20410;-67
2023/10/30 11:50:56;;;;;;;7.65;2.40;;;14.70;99.10;;;;;;10501901;28;20465;-74
2023/10/30 11:55:57;;;;;;;8.80;1.65;;;15.30;99.50;;;;;;10489656;28;20470;-73
2023/10/30 12:00:59;;;;;;;6.18;1.58;;;14.60;99.90;;;;;;10501783;28;20484;-74
2023/10/30 12:06:00;;;;;;;8.68;1.67;;;14.60;99.90;;;;;;10498805;28;20443;-73
2023/10/30 12:11:01;;;;;;;7.57;1.87;;;14.60;99.90;;;;;;10498313;28;20447;-73
2023/10/30 12:16:01;;;;;;;6.93;2.13;;;14.50;99.90;;;;;;10492699;28;20783;-74
2023/10/30 12:21:02;;;;;;;7.27;1.57;;;14.50;99.90;;;;;;10492942;28;20853;-75
2023/10/30 12:26:05;;;;;;;6.55;1.90;;;14.50;99.90;;;;;;10493320;28;20400;-73
2023/10/30 12:31:23;;;;;;;7.30;2.05;;;14.50;99.90;;;;;;10485790;28;20447;-71
2023/10/30 12:36:33;;;;;;;8.20;2.28;;;14.50;99.90;;;;;;10492619;28;20896;-70
2023/10/30 12:41:34;;;;;;;11.20;2.25;;;14.00;99.90;;;;;;10494684;28;20397;-71
2023/10/30 12:46:35;;;;;;;8.00;1.90;;;14.50;99.90;;;;;;10500512;28;20472;-66
2023/10/30 12:51:36;;;;;;;9.95;1.85;;;14.60;99.90;;;;;;10495747;28;20394;-71
2023/10/30 12:56:36;;;;;;;9.30;1.92;;;14.80;99.90;;;;;;10495855;28;20427;-71
2023/10/30 13:01:37;;;;;;;8.90;2.13;;;14.60;99.90;;;;;;10501561;28;20410;-70
2023/10/30 13:06:37;;;;;;;6.77;2.10;;;14.80;99.90;;;;;;10497714;28;20436;-71
2023/10/30 13:11:38;;;;;;;8.32;2.03;;;14.60;99.90;;;;;;10494405;28;20442;-71
2023/10/30 13:16:39;;;;;;;11.17;2.17;;;14.80;99.90;;;;;;10495799;28;20455;-71
2023/10/30 13:21:39;;;;;;;7.93;1.80;;;14.60;99.90;;;;;;10489859;28;20405;-72
2023/10/30 13:26:40;;;;;;;7.07;1.90;;;14.60;99.90;;;;;;10488978;28;20423;-70
2023/10/30 13:31:40;;;;;;;11.35;2.30;;;14.60;99.90;;;;;;10493351;28;20493;-70
2023/10/30 13:36:41;;;;;;;9.57;1.83;;;14.80;99.90;;;;;;10500696;28;20567;-72
2023/10/30 13:41:44;;;;;;;7.68;2.00;;;14.60;99.90;;;;;;10498187;28;20482;-71
2023/10/30 13:46:44;;;;;;;6.43;2.22;;;14.70;99.90;;;;;;10500391;28;20830;-72
2023/10/30 13:51:45;;;;;;;7.13;1.73;;;14.70;99.90;;;;;;10488520;28;20554;-72
2023/10/30 13:56:46;;;;;;;9.90;2.30;;;14.70;99.90;;;;;;10487123;28;20424;-70
2023/10/30 14:01:46;;;;;;;9.10;2.10;;;14.70;99.90;;;;;;10487165;28;20410;-73
2023/10/30 14:06:47;;;;;;;7.00;1.90;;;14.80;99.90;;;;;;10497465;28;20847;-72
2023/10/30 14:11:48;;;;;;;11.32;1.70;;;14.70;99.90;;;;;;10499081;28;20403;-70
2023/10/30 14:16:50;;;;;;;8.47;2.30;;;15.00;99.90;;;;;;10489255;28;20414;-74
2023/10/30 14:21:51;;;;;;;7.22;2.13;;;14.60;99.90;;;;;;10498765;28;20402;-72
2023/10/30 14:26:52;;;;;;;7.77;2.10;;;14.70;99.90;;;;;;10490744;28;20417;-71
2023/10/30 14:31:52;;;;;;;8.63;2.13;;;14.70;99.90;;;;;;10483076;28;20467;-74
2023/10/30 14:36:53;;;;;;;10.80;2.27;;;14.60;99.90;;;;;;10488929;28;20481;-73
2023/10/30 14:41:56;;;;;;;6.93;1.57;;;14.60;99.90;;;;;;10489320;28;20910;-71
2023/10/30 14:46:56;;;;;;;9.83;2.20;;;14.90;99.90;;;;;;10497984;28;20404;-69
2023/10/30 14:51:58;;;;;;;10.20;2.15;;;14.60;99.90;;;;;;10502882;28;20404;-69
2023/10/30 14:56:59;;;;;;;8.40;2.17;;;14.60;99.90;;;;;;10502045;28;20879;-69
2023/10/30 15:02:00;;;;;;;6.63;2.10;;;14.50;99.90;;;;;;10503801;28;20446;-70
2023/10/30 15:07:00;;;;;;;10.07;2.90;;;14.50;99.90;;;;;;10505051;28;20390;-71
2023/10/30 15:12:01;;;;;;;11.53;3.50;;;14.60;99.90;;;;;;10499899;28;20399;-70
2023/10/30 15:17:02;;;;;;;15.50;4.13;;;14.60;99.90;;;;;;10501888;28;20411;-70
2023/10/30 15:22:04;;;;;;;9.13;3.60;;;14.50;99.90;;;;;;10507446;28;20423;-70
2023/10/30 15:27:05;;;;;;;9.77;3.28;;;14.50;99.90;;;;;;10485777;28;20465;-71
2023/10/30 15:32:06;;;;;;;12.43;3.30;;;14.40;99.90;;;;;;10497699;28;20407;-70
2023/10/30 15:37:06;;;;;;;9.50;2.90;;;14.40;99.90;;;;;;10501440;28;20921;-71
2023/10/30 15:42:07;;;;;;;9.47;2.70;;;14.50;99.90;;;;;;10506086;28;21080;-70
2023/10/30 15:47:08;;;;;;;8.15;2.78;;;14.40;99.90;;;;;;10501968;28;20403;-72
2023/10/30 15:52:08;;;;;;;10.47;2.53;;;14.40;99.90;;;;;;10499772;28;20403;-70
2023/10/30 15:57:09;;;;;;;9.00;2.70;;;14.50;99.90;;;;;;10495863;28;20409;-70
2023/10/30 16:02:11;;;;;;;7.80;2.03;;;14.50;99.90;;;;;;10502771;28;20399;-70
2023/10/30 16:07:12;;;;;;;7.00;2.10;;;14.60;99.90;;;;;;10507704;28;20408;-68
2023/10/30 16:12:13;;;;;;;5.67;1.90;;;14.60;99.90;;;;;;10502073;28;20434;-72
2023/10/30 16:17:13;;;;;;;6.50;1.90;;;14.70;99.90;;;;;;10490976;28;20437;-69
2023/10/30 16:22:14;;;;;;;9.73;2.27;;;14.70;99.90;;;;;;10501545;28;20416;-70
2023/10/30 16:27:16;;;;;;;10.03;2.43;;;14.70;99.90;;;;;;10501557;28;20892;-67
2023/10/30 16:32:16;;;;;;;7.93;2.35;;;14.70;99.90;;;;;;10500946;28;20414;-68
2023/10/30 16:37:17;;;;;;;9.73;2.40;;;14.70;99.90;;;;;;10495324;28;20415;-66
2023/10/30 16:42:21;;;;;;;7.63;2.70;;;14.80;99.90;;;;;;10496574;28;20911;-67
2023/10/30 16:47:21;;;;;;;7.32;2.38;;;14.90;99.90;;;;;;10499083;28;20402;-67
2023/10/30 16:52:22;;;;;;;5.67;1.97;;;14.90;99.90;;;;;;10494959;28;20436;-68
2023/10/30 16:57:22;;;;;;;7.47;2.30;;;13.50;99.90;;;;;;10500815;28;20741;-67
2023/10/30 17:02:23;;;;;;;6.80;2.10;;;14.90;99.90;;;;;;10494564;28;20542;-67
2023/10/30 17:07:25;;;;;;;4.10;2.00;;;14.90;99.90;;;;;;10496964;28;20401;-67
2023/10/30 17:12:25;;;;;;;5.97;2.17;;;14.90;99.90;;;;;;10493917;28;20901;-67
2023/10/30 17:17:26;;;;;;;6.07;2.07;;;14.90;99.90;;;;;;10500147;28;20822;-67
2023/10/30 17:22:26;;;;;;;7.67;2.10;;;14.90;99.90;;;;;;10494347;28;20806;-67
2023/10/30 17:27:27;;;;;;;3.83;1.80;;;14.90;99.90;;;;;;10497323;28;20798;-67
2023/10/30 17:32:28;;;;;;;5.83;2.00;;;14.90;99.90;;;;;;10496154;28;20417;-67
2023/10/30 17:37:28;;;;;;;5.17;1.90;;;14.90;99.90;;;;;;10497765;28;20398;-68
2023/10/30 17:42:29;;;;;;;5.75;1.98;;;14.90;99.90;;;;;;10495287;28;20417;-67
2023/10/30 17:47:29;;;;;;;6.27;1.97;;;14.90;99.90;;;;;;10506866;28;20398;-67
2023/10/30 17:52:30;;;;;;;5.77;2.10;;;14.90;99.90;;;;;;10484887;28;20406;-66
2023/10/30 17:57:31;;;;;;;6.45;1.90;;;14.90;99.90;;;;;;10498953;28;20959;-67
2023/10/30 18:02:31;;;;;;;5.87;2.00;;;15.00;99.90;;;;;;10496614;28;20922;-67
2023/10/30 18:07:32;;;;;;;3.90;1.83;;;14.90;99.90;;;;;;10497455;28;20554;-67
2023/10/30 18:12:33;;;;;;;5.53;2.30;;;14.90;99.90;;;;;;10492272;28;20423;-67
2023/10/30 18:17:34;;;;;;;4.60;1.88;;;14.90;99.90;;;;;;10489275;28;20406;-66
2023/10/30 18:22:35;;;;;;;4.80;1.95;;;14.90;99.90;;;;;;10495811;28;20397;-66
2023/10/30 18:27:36;;;;;;;5.13;2.20;;;14.90;99.90;;;;;;10500831;28;20435;-66
2023/10/30 18:32:37;;;;;;;4.80;1.87;;;14.90;99.90;;;;;;10508816;28;20488;-69
2023/10/30 18:37:37;;;;;;;4.25;1.80;;;14.90;99.90;;;;;;10492393;28;20412;-66
2023/10/30 18:42:38;;;;;;;6.17;2.03;;;14.90;99.90;;;;;;10497374;28;20398;-66
2023/10/30 18:47:38;;;;;;;3.83;1.90;;;14.90;99.90;;;;;;10498782;28;20411;-66
2023/10/30 18:52:39;;;;;;;5.38;2.15;;;14.90;99.90;;;;;;10509133;28;20772;-66
2023/10/30 18:57:40;;;;;;;5.30;2.10;;;14.80;99.90;;;;;;10494304;28;20396;-66
2023/10/30 19:02:40;;;;;;;3.40;2.00;;;14.90;99.90;;;;;;10479499;28;20417;-66
2023/10/30 19:07:41;;;;;;;6.70;2.20;;;14.90;99.90;;;;;;10486176;28;20408;-66
2023/10/30 19:12:41;;;;;;;5.03;2.40;;;14.90;99.90;;;;;;10489358;28;20428;-65
2023/10/30 19:17:42;;;;;;;6.03;2.47;;;14.90;99.90;;;;;;10487692;28;20399;-66
2023/10/30 19:22:42;;;;;;;4.57;1.93;;;14.80;99.90;;;;;;10477047;28;20400;-66
2023/10/30 19:27:43;;;;;;;6.63;2.47;;;14.80;99.90;;;;;;10480397;28;20414;-66
2023/10/30 19:32:45;;;;;;;4.83;2.13;;;15.10;99.90;;;;;;10477851;28;20410;-66
2023/10/30 19:37:46;;;;;;;5.18;2.03;;;14.80;99.90;;;;;;10479251;28;20398;-66
2023/10/30 19:42:47;;;;;;;4.90;2.10;;;14.80;99.90;;;;;;10475595;28;20773;-66
2023/10/30 19:47:47;;;;;;;5.55;2.10;;;15.30;99.90;;;;;;10474581;28;20551;-66
2023/10/30 19:52:48;;;;;;;5.37;2.10;;;14.80;99.90;;;;;;10479055;28;20979;-66
2023/10/30 19:57:48;;;;;;;4.20;2.13;;;14.80;99.90;;;;;;10479999;28;20847;-66
2023/10/30 20:02:49;;;;;;;6.00;2.03;;;14.80;99.90;;;;;;10479614;28;20823;-66
2023/10/30 20:07:50;;;;;;;5.97;1.90;;;14.80;99.90;;;;;;10481513;28;20410;-66
2023/10/30 20:12:51;;;;;;;5.67;2.17;;;14.80;99.90;;;;;;10482217;28;20428;-66
2023/10/30 20:17:52;;;;;;;3.50;1.90;;;14.80;99.90;;;;;;10493389;28;20774;-65
2023/10/30 20:22:54;;;;;;;6.97;2.10;;;14.80;99.90;;;;;;10487011;28;20401;-65
2023/10/30 20:27:54;;;;;;;4.77;2.20;;;14.80;99.90;;;;;;10485235;28;20400;-66
2023/10/30 20:32:55;;;;;;;5.53;1.83;;;14.80;99.90;;;;;;10487174;28;20417;-66
2023/10/30 20:37:56;;;;;;;4.43;1.90;;;14.80;99.90;;;;;;10488648;28;20766;-65
2023/10/30 20:42:56;;;;;;;5.33;1.83;;;14.80;99.90;;;;;;10491615;28;20402;-66
2023/10/30 20:47:57;;;;;;;4.73;2.10;;;14.80;99.90;;;;;;10488281;28;20879;-65
2023/10/30 20:52:57;;;;;;;4.72;2.28;;;14.80;99.90;;;;;;10488547;28;20398;-65
2023/10/30 20:57:58;;;;;;;6.63;2.07;;;14.80;99.90;;;;;;10491533;28;20512;-66
2023/10/30 21:02:59;;;;;;;3.83;1.90;;;14.80;99.90;;;;;;10492981;28;20407;-67
2023/10/30 21:07:59;;;;;;;4.13;2.30;;;14.90;99.90;;;;;;10487086;28;20407;-66
2023/10/30 21:13:00;;;;;;;3.42;1.80;;;14.80;99.90;;;;;;10482720;28;20956;-67
2023/10/30 21:18:01;;;;;;;5.17;2.13;;;14.80;99.90;;;;;;10478414;28;20401;-67
2023/10/30 21:23:03;;;;;;;5.37;2.07;;;14.70;99.90;;;;;;10489403;28;20406;-66
2023/10/30 21:28:03;;;;;;;3.78;1.73;;;14.70;99.90;;;;;;10492952;28;20883;-66
2023/10/30 21:33:04;;;;;;;5.03;1.90;;;15.00;99.90;;;;;;10491611;28;20664;-67
2023/10/30 21:38:05;;;;;;;4.90;1.80;;;14.80;99.90;;;;;;10484399;28;20407;-67
2023/10/30 21:43:07;;;;;;;3.93;1.87;;;14.70;99.90;;;;;;10486689;28;20399;-67
2023/10/30 21:48:07;;;;;;;4.07;1.83;;;14.70;99.90;;;;;;10485308;28;20410;-67
2023/10/30 21:53:08;;;;;;;3.93;1.70;;;14.70;99.90;;;;;;10487020;28;20415;-67
2023/10/30 21:58:09;;;;;;;3.78;1.73;;;14.70;99.90;;;;;;10487328;28;20909;-67
2023/10/30 22:03:09;;;;;;;4.83;1.80;;;14.70;99.90;;;;;;10489985;28;20534;-67
2023/10/30 22:08:10;;;;;;;3.33;1.70;;;14.70;99.90;;;;;;10481147;28;20407;-67
2023/10/30 22:13:12;;;;;;;2.88;1.70;;;14.60;99.90;;;;;;10490929;28;21003;-67
2023/10/30 22:18:12;;;;;;;1.97;1.40;;;14.60;99.90;;;;;;10481494;28;20454;-67
2023/10/30 22:23:13;;;;;;;2.73;1.60;;;14.60;99.90;;;;;;10488537;28;20402;-67
2023/10/30 22:28:14;;;;;;;4.30;1.73;;;14.60;99.90;;;;;;10483030;28;20402;-67
2023/10/30 22:33:14;;;;;;;3.90;1.70;;;14.60;99.90;;;;;;10491020;28;20986;-67
2023/10/30 22:38:15;;;;;;;3.33;1.63;;;14.60;99.90;;;;;;10486479;28;20755;-67
2023/10/30 22:43:15;;;;;;;2.70;1.70;;;15.00;99.90;;;;;;10490327;28;20410;-67
2023/10/30 22:48:16;;;;;;;3.15;1.70;;;14.60;99.90;;;;;;10492553;28;20402;-67
2023/10/30 22:53:17;;;;;;;3.40;1.90;;;14.60;99.90;;;;;;10492052;28;20792;-67
2023/10/30 22:58:18;;;;;;;2.70;1.70;;;14.90;99.90;;;;;;10491225;28;20397;-67
2023/10/30 23:03:19;;;;;;;3.30;1.53;;;14.50;99.90;;;;;;10486357;28;20413;-67
2023/10/30 23:08:19;;;;;;;3.30;1.58;;;14.50;99.90;;;;;;10484720;28;20417;-67
2023/10/30 23:13:20;;;;;;;3.47;1.73;;;14.50;99.90;;;;;;10490901;28;20487;-67
2023/10/30 23:18:20;;;;;;;2.47;1.70;;;14.60;99.90;;;;;;10483236;28;20394;-67
2023/10/30 23:23:21;;;;;;;3.13;1.50;;;14.50;99.90;;;;;;10491350;28;20486;-67
2023/10/30 23:28:21;;;;;;;2.17;1.60;;;14.50;99.90;;;;;;10486338;28;20763;-67
2023/10/30 23:33:23;;;;;;;2.93;1.60;;;14.50;99.90;;;;;;10487896;28;20479;-67
2023/10/30 23:38:24;;;;;;;3.53;1.77;;;14.50;99.90;;;;;;10492364;28;20446;-67
2023/10/30 23:43:26;;;;;;;3.05;1.58;;;14.50;99.90;;;;;;10502979;28;20485;-67
2023/10/30 23:48:26;;;;;;;3.07;1.70;;;14.50;99.90;;;;;;10499093;28;20803;-67
2023/10/30 23:53:27;;;;;;;2.30;1.50;;;14.50;99.90;;;;;;10495061;28;20441;-64
2023/10/30 23:58:28;;;;;;;3.30;1.70;;;14.50;99.90;;;;;;10501246;28;20640;-64
